AirNav   Air Wisconsin pilot careers
 
 1540 users online  

10C Galt Field Airport
Greenwood/Wonder Lake, Illinois, USA

GOING TO GREENWOOD/WONDER LAKE?


FAA INFORMATION EFFECTIVE 07 DECEMBER 2017

Location

FAA Identifier: 10C
Lat/Long: 42-24-10.4000N / 088-22-30.4000W
42-24.173333N / 088-22.506667W
42.4028889 / -88.3751111
(estimated)
Elevation: 875 ft. / 266.7 m (surveyed)
Variation: 02W (2000)
From city: 1 mile N of central business district of the associated city
Time zone: UTC -6 (UTC -5 during Daylight Saving Time)
Zip code: 60098

Airport Operations

Airport use: Open to the public
Activation date: 09/1958
Control tower: no
ARTCC: CHICAGO CENTER
FSS: KANKAKEE FLIGHT SERVICE STATION
NOTAMs facility: IKK (NOTAM-D service available)
Attendance: 0800-1700
Pattern altitude: 1675 ft. MSL
Wind indicator: lighted
Segmented circle: no
Beacon: white-green (lighted land airport)
Operates sunset to sunrise.

Airport Communications

CTAF/UNICOM: 122.8
CHICAGO APPROACH: 120.55
CHICAGO DEPARTURE: 120.55
WX AWOS-3 at BUU (18 nm N): 114.5 (262-757-0907)

Nearby radio navigation aids

VOR radial/distance  VOR name  Freq  Var
BUUr192/17.5BURBUN VOR/DME114.5001W
OBKr302/21.7NORTHBROOK VOR/DME113.0002W
DPAr356/30.8DUPAGE VOR/DME108.4002E
ORDr318/32.5CHICAGO O'HARE VOR/DME113.9002E
JVLr103/33.6JANESVILLE VOR/DME114.3003E
RFDr073/38.1ROCKFORD VOR/DME110.8001E

 
NDB name  Hdg/Dist  Freq  Var  ID
LAKE LAWN154/20.240402WLVV .-.. ...- ...-

Airport Services

Fuel available: 100LL
Parking: hangars and tiedowns
Airframe service: MAJOR
Powerplant service: MAJOR
Bottled oxygen: NONE
Bulk oxygen: NONE

Runway Information

Runway 9/27

Dimensions: 2802 x 36 ft. / 854 x 11 m
Surface: asphalt, in fair condition
Runway edge lights: low intensity
RY 09/27 NSTD LIRL WITH NSTD SPACING; 2669 FT LGTD AT NIGHT.
RUNWAY 9  RUNWAY 27
Latitude: 42-24.104972N42-24.119943N
Longitude: 088-22.882282W088-22.260242W
Elevation: 873.9 ft.847.9 ft.
Gradient: 0.9% DOWN0.9% UP
Traffic pattern: leftleft
Runway heading: 090 magnetic, 088 true270 magnetic, 268 true
Markings: nonprecision, in good conditionnonprecision, in good condition
Runway end identifier lights: nono
Touchdown point: yes, no lightsno, no lights
Obstructions: none
CLEAR 20:1 TO RWY 09 THRESHOLD
74 ft. tree, 1528 ft. from runway, 113 ft. right of centerline, 18:1 slope to clear

Runway 18/36

Dimensions: 2141 x 125 ft. / 653 x 38 m
Surface: turf, in fair condition
RUNWAY 18  RUNWAY 36
Latitude: 42-24.428267N42-24.076072N
Longitude: 088-22.432450W088-22.414980W
Elevation: 866.9 ft.854.6 ft.
Gradient: 0.6% DOWN0.6% UP
Traffic pattern: leftleft
Runway heading: 180 magnetic, 178 true000 magnetic, 358 true
Displaced threshold: 213 ft.149 ft.
Markings: nonenone
Runway end identifier lights: nono

Airport Ownership and Management from official FAA records

Ownership: Privately-owned
Owner: FLAGSHIP PHOENIX, INC
5112 GREENWOOD ROAD
WONDER LAKE, IL 60097
Phone 815-648-2433
OWNERS ARE CLAUDE & DIANE SONDAY; PHONE 847-542-1148
Manager: JUSTIN CLELAND
5112 GREENWOOD ROAD
GREENWOOD, IL 60097
Phone 815-648-2433

Airport Operational Statistics

Aircraft based on the field: 57
Single engine airplanes: 47
Multi engine airplanes: 3
Helicopters: 1
Ultralights: 6
    
Aircraft operations: avg 110/day *
62% transient general aviation
38% local general aviation
* for 12-month period ending 31 July 2017

Additional Remarks

DEER ON & INVOF ARPT.
FOR CD CTC CHICAGO APCH AT 847-289-0926.
100LL SELF SERVE FUEL AVAILABLE 24 HR WITH CREDIT CARD

Instrument Procedures

NOTE: All procedures below are presented as PDF files. If you need a reader for these files, you should download the free Adobe Reader.

NOT FOR NAVIGATION. Please procure official charts for flight.
FAA instrument procedures published for use between 7 December 2017 at 0901Z and 4 January 2018 at 0900Z.

 
IAPs - Instrument Approach Procedures
RNAV (GPS)-B **CHANGED**   download (145KB)
NOTE: Special Take-Off Minimums/Departure Procedures apply   download (201KB)

Other nearby airports with instrument procedures:

3CK - Lake in the Hills Airport (12 nm S)
C02 - Grand Geneva Resort Airport (13 nm N)
C81 - Campbell Airport (14 nm E)
KBUU - Burlington Municipal Airport (18 nm N)
C77 - Poplar Grove Airport (21 nm W)
 
Loc | Ops | Rwys | IFR | FBO | Links
Com | Nav | Svcs | Stats | Notes


 
Area around 10C (Galt Field Airport)
 
Road maps at: MapQuest Bing Google
 
Aerial photo
WARNING: Photo may not be current or correct
Aerial photo of 10C (Galt Field Airport)
Photo by Wayne Hunter
Photo taken 12-Jun-2015
looking east.

Do you have a better or more recent aerial photo of Galt Field Airport that you would like to share? If so, please send us your photo.

 
Sectional chart

 
Airport distance calculator
Flying to Galt Field Airport? Find the distance to fly.

From to 10C

Sunrise and sunset
Times for 11-Dec-2017
 Local
(UTC-6)
 Zulu
(UTC)
Morning civil twilight06:4212:42
Sunrise07:1413:14
Sunset16:2022:20
Evening civil twilight16:5222:52

Current date and time
Zulu (UTC)  11-Dec-2017 17:10:57
Local (UTC-6)  11-Dec-2017 11:10:57
 
METAR
KBUU 
17nm N 
111650Z AUTO 14006KT 10SM CLR 04/02 A2976 RMK AO2 T00350017
KUGN 
23nm E 
111655Z 16006KT 6SM HZ FEW060 SCT120 00/M04 A2979 RMK AO2 SLP099 T00001044
KENW 
23nm NE 
111653Z 17008KT 9SM 00/M05 A2979 RMK AO2 SLP095 T00001050
KPWK 
27nm SE 
111652Z 17008KT 10SM SCT060 BKN120 01/M04 A2981 RMK AO2 SLP102 T00111039
K06C 
28nm SE 
111655Z AUTO 16005KT 10SM SCT120 00/M05 A2979 RMK AO2 T00001046
KDPA 
30nm S 
111652Z 17010KT 6SM HZ BKN120 01/M04 A2978 RMK AO2 SLP094 T00061039
KJVL 
31nm NW 
111645Z 14007KT 10SM SCT075 OVC090 01/M04 A2975
KDKB 
32nm SW 
111655Z AUTO 15013KT 10SM OVC110 01/M03 A2976 RMK AO2 T00051035
KORD 
32nm SE 
111651Z 16009KT 10SM BKN110 BKN160 OVC250 01/M05 A2978 RMK AO2 SLP093 T00061050
KRAC 
33nm NE 
111653Z AUTO 18006KT 9SM SCT060 M01/M04 A2981 RMK AO2 SLP102 T10061044
TAF
KENW 
23nm NE 
111134Z 1112/1212 20005KT 5SM -SN OVC040 TEMPO 1112/1114 2SM -SN BKN025 FM111400 19008KT P6SM OVC040 FM112000 21006KT 2SM -SN OVC030 FM120100 33011G20KT P6SM OVC010 FM120300 33016G29KT P6SM BKN025 FM120600 33017G28KT P6SM SCT040
NOTAMs
Click for the latest NOTAMs
NOTAMs are issued by the DoD/FAA and will open in a separate window not controlled by AirNav.

 

 
 

FBO, Fuel Providers, and Aircraft Ground Support

  
 Business Name 
 
 Contact 
 
 Services / Description 
 
Fuel Prices
 
Comments
  
 Galt Airport LLC
815-648-2433
[web site]
[email]
Aviation fuel, Aircraft parking (ramp or tiedown), Hangars, Hangar leasing / sales, GPU / Power cart, Passenger terminal and lounge, Flight training, ...

More info about Galt Airport LLC
independent
100LL
SS $4.29 
 Updated 06-Dec-2017
 
   2 read write
SS=Self service
Update Fuel Prices
 

Would you like to see your business listed on this page?

 If your business provides an interesting product or service to pilots, flight crews, aircraft, or users of the Galt Field Airport, you should consider listing it here.  To start the listing process, click on the button below
 
Add a business
 

Other Pages about Galt Field Airport

Update a link
 
Copyright © AirNav, LLC. All rights reserved. Privacy Policy  Contact